DLH9U EGLL-EDDF
Flight info
| Callsign | DLH9U |
|---|---|
| Flight time | 0h 55m |
| Altitude | 33000 |
| Route | DET2F DET L6 DVR UL9 KONAN UL607 SPI T180 NIVNU T847 IMCOM IMCOM1D |
| Aircraft | A320/M-SDE3FGHIRWY/LB1 |
Departure
| Time | 2026-04-15 10:19 |
|---|---|
| Airport | London Heathrow Airport (EGLL) |
Arrival
| Time | 2026-04-15 11:14 |
|---|---|
| Airport | Frankfurt Main Airport (EDDF) |
| Time | Latitude | Longitude | Altitude | Speed | Heading |
|---|---|---|---|---|---|
| 2026-04-15 09:55 | 51.47037 | -0.44681 | 86 ft | 0 kts | 270° |
| 2026-04-15 10:09 | 51.47037 | -0.44680 | 86 ft | 1 kts | 270° |
| 2026-04-15 10:09 | 51.47037 | -0.44645 | 88 ft | 3 kts | 270° |
| 2026-04-15 10:10 | 51.47037 | -0.44608 | 86 ft | 3 kts | 271° |
| 2026-04-15 10:10 | 51.47033 | -0.44574 | 90 ft | 3 kts | 309° |
| 2026-04-15 10:10 | 51.47016 | -0.44556 | 89 ft | 3 kts | 356° |
| 2026-04-15 10:10 | 51.46998 | -0.44556 | 86 ft | 3 kts | 360° |
| 2026-04-15 10:11 | 51.46994 | -0.44556 | 86 ft | 0 kts | 360° |
| 2026-04-15 10:13 | 51.47009 | -0.44556 | 89 ft | 6 kts | 360° |
| 2026-04-15 10:13 | 51.47056 | -0.44556 | 87 ft | 6 kts | 360° |
| 2026-04-15 10:14 | 51.47113 | -0.44556 | 86 ft | 11 kts | 359° |
| 2026-04-15 10:14 | 51.47190 | -0.44557 | 88 ft | 10 kts | 359° |
| 2026-04-15 10:14 | 51.47265 | -0.44558 | 86 ft | 14 kts | 360° |
| 2026-04-15 10:14 | 51.47374 | -0.44559 | 88 ft | 16 kts | 359° |
| 2026-04-15 10:15 | 51.47477 | -0.44555 | 86 ft | 14 kts | 13° |
| 2026-04-15 10:15 | 51.47503 | -0.44414 | 87 ft | 16 kts | 90° |
| 2026-04-15 10:15 | 51.47504 | -0.44251 | 86 ft | 14 kts | 89° |
| 2026-04-15 10:15 | 51.47505 | -0.44078 | 88 ft | 18 kts | 89° |
| 2026-04-15 10:16 | 51.47505 | -0.43879 | 89 ft | 17 kts | 90° |
| 2026-04-15 10:16 | 51.47459 | -0.43729 | 87 ft | 15 kts | 124° |
| 2026-04-15 10:16 | 51.47454 | -0.43554 | 86 ft | 15 kts | 90° |
| 2026-04-15 10:16 | 51.47489 | -0.43422 | 86 ft | 13 kts | 12° |
| 2026-04-15 10:17 | 51.47575 | -0.43421 | 87 ft | 12 kts | 0° |
| 2026-04-15 10:17 | 51.47649 | -0.43421 | 88 ft | 10 kts | 360° |
| 2026-04-15 10:17 | 51.47719 | -0.43422 | 91 ft | 12 kts | 359° |
| 2026-04-15 10:17 | 51.47769 | -0.43505 | 88 ft | 11 kts | 270° |
| 2026-04-15 10:18 | 51.47768 | -0.43696 | 89 ft | 39 kts | 269° |
| 2026-04-15 10:18 | 51.47765 | -0.44534 | 89 ft | 107 kts | 270° |
| 2026-04-15 10:18 | 51.47756 | -0.46024 | 88 ft | 158 kts | 270° |
| 2026-04-15 10:18 | 51.47765 | -0.47880 | 525 ft | 170 kts | 263° |
| 2026-04-15 10:19 | 51.47745 | -0.49775 | 1293 ft | 169 kts | 263° |
| 2026-04-15 10:19 | 51.47708 | -0.51723 | 1802 ft | 184 kts | 262° |
| 2026-04-15 10:19 | 51.47340 | -0.53774 | 2107 ft | 203 kts | 235° |
| 2026-04-15 10:19 | 51.46266 | -0.55372 | 2541 ft | 225 kts | 206° |
| 2026-04-15 10:20 | 51.44684 | -0.55762 | 3277 ft | 241 kts | 173° |
| 2026-04-15 10:20 | 51.43175 | -0.54563 | 4165 ft | 255 kts | 144° |
| 2026-04-15 10:20 | 51.41868 | -0.52632 | 5119 ft | 258 kts | 141° |
| 2026-04-15 10:20 | 51.40573 | -0.50614 | 6047 ft | 260 kts | 140° |
| 2026-04-15 10:21 | 51.39275 | -0.48567 | 6936 ft | 263 kts | 140° |
| 2026-04-15 10:21 | 51.37960 | -0.46504 | 7753 ft | 268 kts | 141° |
| 2026-04-15 10:21 | 51.36613 | -0.44407 | 8565 ft | 272 kts | 141° |
| 2026-04-15 10:21 | 51.35236 | -0.42276 | 9381 ft | 277 kts | 141° |
| 2026-04-15 10:22 | 51.33836 | -0.40118 | 10184 ft | 282 kts | 142° |
| 2026-04-15 10:22 | 51.32845 | -0.38704 | 10381 ft | 295 kts | 146° |
| 2026-04-15 10:22 | 51.31354 | -0.36237 | 10629 ft | 328 kts | 127° |
| 2026-04-15 10:22 | 51.30603 | -0.32618 | 10929 ft | 360 kts | 100° |
| 2026-04-15 10:23 | 51.30640 | -0.28547 | 11525 ft | 373 kts | 88° |
| 2026-04-15 10:23 | 51.30994 | -0.24403 | 12208 ft | 379 kts | 85° |
| 2026-04-15 10:23 | 51.31369 | -0.20214 | 12891 ft | 382 kts | 87° |
| 2026-04-15 10:23 | 51.31629 | -0.15968 | 13582 ft | 385 kts | 90° |
| 2026-04-15 10:24 | 51.31736 | -0.11673 | 14219 ft | 388 kts | 94° |
| 2026-04-15 10:24 | 51.31719 | -0.07343 | 14825 ft | 391 kts | 96° |
| 2026-04-15 10:24 | 51.31626 | -0.02995 | 15441 ft | 393 kts | 97° |
| 2026-04-15 10:24 | 51.31503 | 0.01404 | 15942 ft | 396 kts | 97° |
| 2026-04-15 10:25 | 51.31385 | 0.05817 | 16546 ft | 399 kts | 96° |
| 2026-04-15 10:25 | 51.31285 | 0.10261 | 17115 ft | 402 kts | 96° |
| 2026-04-15 10:25 | 51.31199 | 0.14751 | 17676 ft | 406 kts | 96° |
| 2026-04-15 10:25 | 51.31122 | 0.19271 | 18210 ft | 409 kts | 96° |
| 2026-04-15 10:26 | 51.31050 | 0.23776 | 18673 ft | 412 kts | 96° |
| 2026-04-15 10:26 | 51.30977 | 0.28370 | 19148 ft | 415 kts | 96° |
| 2026-04-15 10:26 | 51.30903 | 0.33011 | 19625 ft | 419 kts | 96° |
| 2026-04-15 10:26 | 51.30823 | 0.37675 | 20105 ft | 422 kts | 96° |
| 2026-04-15 10:27 | 51.30735 | 0.42383 | 20568 ft | 425 kts | 96° |
| 2026-04-15 10:27 | 51.30644 | 0.47110 | 21036 ft | 428 kts | 96° |
| 2026-04-15 10:27 | 51.30550 | 0.51886 | 21464 ft | 431 kts | 96° |
| 2026-04-15 10:27 | 51.30446 | 0.56694 | 21929 ft | 434 kts | 97° |
| 2026-04-15 10:28 | 51.30037 | 0.61470 | 22395 ft | 432 kts | 107° |
| 2026-04-15 10:28 | 51.29246 | 0.66084 | 22856 ft | 432 kts | 111° |
| 2026-04-15 10:28 | 51.28397 | 0.70719 | 23323 ft | 435 kts | 111° |
| 2026-04-15 10:28 | 51.27544 | 0.75382 | 23735 ft | 438 kts | 111° |
| 2026-04-15 10:29 | 51.26689 | 0.80069 | 24133 ft | 441 kts | 111° |
| 2026-04-15 10:29 | 51.25835 | 0.84724 | 24518 ft | 443 kts | 111° |
| 2026-04-15 10:29 | 51.24949 | 0.89523 | 24922 ft | 445 kts | 111° |
| 2026-04-15 10:29 | 51.24077 | 0.94215 | 25347 ft | 448 kts | 111° |
| 2026-04-15 10:30 | 51.23186 | 0.98991 | 25660 ft | 451 kts | 111° |
| 2026-04-15 10:30 | 51.22289 | 1.03798 | 25972 ft | 453 kts | 111° |
| 2026-04-15 10:30 | 51.21389 | 1.08639 | 26306 ft | 456 kts | 111° |
| 2026-04-15 10:30 | 51.20482 | 1.13515 | 26648 ft | 458 kts | 111° |
| 2026-04-15 10:31 | 51.19568 | 1.18403 | 26983 ft | 461 kts | 111° |
| 2026-04-15 10:31 | 51.18646 | 1.23310 | 27311 ft | 463 kts | 111° |
| 2026-04-15 10:31 | 51.17717 | 1.28242 | 27631 ft | 465 kts | 111° |
| 2026-04-15 10:31 | 51.16795 | 1.33193 | 27940 ft | 468 kts | 109° |
| 2026-04-15 10:32 | 51.16169 | 1.38333 | 28233 ft | 476 kts | 101° |
| 2026-04-15 10:32 | 51.15907 | 1.43613 | 28494 ft | 480 kts | 97° |
| 2026-04-15 10:32 | 51.15658 | 1.48923 | 28810 ft | 481 kts | 98° |
| 2026-04-15 10:32 | 51.15401 | 1.54239 | 29105 ft | 483 kts | 98° |
| 2026-04-15 10:33 | 51.15143 | 1.59526 | 29379 ft | 485 kts | 98° |
| 2026-04-15 10:33 | 51.14875 | 1.64892 | 29654 ft | 487 kts | 98° |
| 2026-04-15 10:33 | 51.14603 | 1.70272 | 30022 ft | 487 kts | 98° |
| 2026-04-15 10:33 | 51.14330 | 1.75639 | 30383 ft | 486 kts | 98° |
| 2026-04-15 10:34 | 51.14059 | 1.80991 | 30709 ft | 485 kts | 98° |
| 2026-04-15 10:34 | 51.13785 | 1.86344 | 31032 ft | 485 kts | 98° |
| 2026-04-15 10:34 | 51.13508 | 1.91703 | 31344 ft | 485 kts | 97° |
| 2026-04-15 10:34 | 51.13233 | 1.97055 | 31653 ft | 485 kts | 97° |
| 2026-04-15 10:35 | 51.12956 | 2.02404 | 31971 ft | 484 kts | 97° |
| 2026-04-15 10:35 | 51.12674 | 2.07753 | 32303 ft | 484 kts | 97° |
| 2026-04-15 10:35 | 51.12387 | 2.13094 | 32629 ft | 483 kts | 98° |
| 2026-04-15 10:35 | 51.12100 | 2.18355 | 32946 ft | 483 kts | 98° |
| 2026-04-15 10:36 | 51.11815 | 2.23686 | 33108 ft | 483 kts | 97° |
| 2026-04-15 10:36 | 51.11242 | 2.34360 | 33135 ft | 483 kts | 98° |
| 2026-04-15 10:37 | 51.10647 | 2.45004 | 33128 ft | 483 kts | 97° |
| 2026-04-15 10:37 | 51.10023 | 2.55654 | 33133 ft | 483 kts | 97° |
| 2026-04-15 10:38 | 51.09234 | 2.66189 | 33144 ft | 481 kts | 105° |
| 2026-04-15 10:38 | 51.07462 | 2.76407 | 33143 ft | 479 kts | 109° |
| 2026-04-15 10:39 | 51.05600 | 2.86590 | 33128 ft | 479 kts | 108° |
| 2026-04-15 10:39 | 51.03732 | 2.96776 | 33122 ft | 480 kts | 108° |
| 2026-04-15 10:40 | 51.01866 | 3.06972 | 33128 ft | 481 kts | 108° |
| 2026-04-15 10:40 | 50.99997 | 3.17124 | 33137 ft | 481 kts | 108° |
| 2026-04-15 10:41 | 50.98104 | 3.27321 | 33141 ft | 481 kts | 109° |
| 2026-04-15 10:41 | 50.96199 | 3.37518 | 33134 ft | 482 kts | 108° |
| 2026-04-15 10:42 | 50.94287 | 3.47709 | 33145 ft | 482 kts | 108° |
| 2026-04-15 10:42 | 50.92373 | 3.57841 | 33154 ft | 482 kts | 108° |
| 2026-04-15 10:43 | 50.90436 | 3.68032 | 33162 ft | 482 kts | 108° |
| 2026-04-15 10:43 | 50.88478 | 3.78196 | 33175 ft | 482 kts | 108° |
| 2026-04-15 10:44 | 50.86502 | 3.88340 | 33178 ft | 482 kts | 108° |
| 2026-04-15 10:44 | 50.84538 | 3.98427 | 33185 ft | 482 kts | 108° |
| 2026-04-15 10:45 | 50.82556 | 4.08563 | 33186 ft | 482 kts | 108° |
| 2026-04-15 10:45 | 50.80565 | 4.18678 | 33189 ft | 481 kts | 108° |
| 2026-04-15 10:46 | 50.78566 | 4.28791 | 33177 ft | 481 kts | 108° |
| 2026-04-15 10:46 | 50.76561 | 4.38883 | 33182 ft | 481 kts | 108° |
| 2026-04-15 10:47 | 50.74556 | 4.48911 | 33198 ft | 481 kts | 108° |
| 2026-04-15 10:47 | 50.72529 | 4.58975 | 33185 ft | 481 kts | 108° |
| 2026-04-15 10:48 | 50.70532 | 4.69062 | 33204 ft | 481 kts | 108° |
| 2026-04-15 10:48 | 50.68593 | 4.79168 | 33208 ft | 481 kts | 108° |
| 2026-04-15 10:49 | 50.66653 | 4.89203 | 33206 ft | 480 kts | 108° |
| 2026-04-15 10:49 | 50.64656 | 4.99258 | 33209 ft | 480 kts | 109° |
| 2026-04-15 10:50 | 50.62589 | 5.09277 | 33215 ft | 480 kts | 109° |
| 2026-04-15 10:50 | 50.60512 | 5.19273 | 33212 ft | 480 kts | 108° |
| 2026-04-15 10:51 | 50.58445 | 5.29188 | 33216 ft | 479 kts | 108° |
| 2026-04-15 10:51 | 50.56363 | 5.39174 | 33212 ft | 479 kts | 108° |
| 2026-04-15 10:52 | 50.54265 | 5.49146 | 33213 ft | 479 kts | 109° |
| 2026-04-15 10:52 | 50.52156 | 5.59084 | 33213 ft | 479 kts | 108° |
| 2026-04-15 10:53 | 50.50113 | 5.69061 | 33197 ft | 480 kts | 106° |
| 2026-04-15 10:53 | 50.48278 | 5.79082 | 33187 ft | 480 kts | 105° |
| 2026-04-15 10:54 | 50.46462 | 5.89166 | 33190 ft | 480 kts | 105° |
| 2026-04-15 10:54 | 50.44584 | 5.99226 | 33195 ft | 480 kts | 106° |
| 2026-04-15 10:55 | 50.42658 | 6.09264 | 33024 ft | 481 kts | 106° |
| 2026-04-15 10:55 | 50.41692 | 6.14284 | 32788 ft | 480 kts | 106° |
| 2026-04-15 10:55 | 50.40728 | 6.19299 | 32522 ft | 480 kts | 106° |
| 2026-04-15 10:55 | 50.39765 | 6.24320 | 32088 ft | 480 kts | 106° |
| 2026-04-15 10:56 | 50.38795 | 6.29371 | 30876 ft | 485 kts | 106° |
| 2026-04-15 10:56 | 50.37821 | 6.34430 | 30276 ft | 481 kts | 106° |
| 2026-04-15 10:56 | 50.36867 | 6.39439 | 29559 ft | 476 kts | 104° |
| 2026-04-15 10:56 | 50.36248 | 6.44421 | 28927 ft | 470 kts | 95° |
| 2026-04-15 10:57 | 50.35943 | 6.49480 | 28285 ft | 464 kts | 94° |
| 2026-04-15 10:57 | 50.35323 | 6.59452 | 27036 ft | 456 kts | 95° |
| 2026-04-15 10:57 | 50.35003 | 6.64375 | 26429 ft | 452 kts | 95° |
| 2026-04-15 10:58 | 50.34681 | 6.69263 | 25819 ft | 448 kts | 95° |
| 2026-04-15 10:58 | 50.34362 | 6.74105 | 25219 ft | 445 kts | 96° |
| 2026-04-15 10:58 | 50.34050 | 6.78903 | 24624 ft | 441 kts | 96° |
| 2026-04-15 10:58 | 50.33692 | 6.83668 | 24035 ft | 438 kts | 101° |
| 2026-04-15 10:59 | 50.32922 | 6.88247 | 23419 ft | 433 kts | 111° |
| 2026-04-15 10:59 | 50.31734 | 6.92534 | 22904 ft | 427 kts | 115° |
| 2026-04-15 10:59 | 50.30501 | 6.96657 | 22382 ft | 420 kts | 116° |
| 2026-04-15 10:59 | 50.29266 | 7.00771 | 21904 ft | 414 kts | 116° |
| 2026-04-15 11:00 | 50.28052 | 7.04823 | 21441 ft | 408 kts | 116° |
| 2026-04-15 11:00 | 50.26858 | 7.08821 | 20964 ft | 403 kts | 115° |
| 2026-04-15 11:00 | 50.25677 | 7.12776 | 20501 ft | 399 kts | 115° |
| 2026-04-15 11:00 | 50.24509 | 7.16687 | 20033 ft | 395 kts | 116° |
| 2026-04-15 11:01 | 50.23359 | 7.20523 | 19559 ft | 393 kts | 116° |
| 2026-04-15 11:01 | 50.22199 | 7.24374 | 19082 ft | 390 kts | 116° |
| 2026-04-15 11:01 | 50.21039 | 7.28211 | 18578 ft | 389 kts | 116° |
| 2026-04-15 11:01 | 50.19889 | 7.32020 | 18038 ft | 387 kts | 116° |
| 2026-04-15 11:02 | 50.18812 | 7.35858 | 17528 ft | 384 kts | 113° |
| 2026-04-15 11:02 | 50.17848 | 7.39729 | 17023 ft | 381 kts | 111° |
| 2026-04-15 11:02 | 50.16952 | 7.43605 | 16522 ft | 379 kts | 110° |
| 2026-04-15 11:02 | 50.16078 | 7.47477 | 16021 ft | 377 kts | 110° |
| 2026-04-15 11:03 | 50.15204 | 7.51328 | 15520 ft | 375 kts | 111° |
| 2026-04-15 11:03 | 50.14318 | 7.55148 | 15028 ft | 374 kts | 111° |
| 2026-04-15 11:03 | 50.13429 | 7.58904 | 14535 ft | 373 kts | 111° |
| 2026-04-15 11:03 | 50.12523 | 7.62671 | 14029 ft | 371 kts | 112° |
| 2026-04-15 11:04 | 50.11608 | 7.66439 | 13439 ft | 371 kts | 112° |
| 2026-04-15 11:04 | 50.10436 | 7.69969 | 12799 ft | 360 kts | 129° |
| 2026-04-15 11:04 | 50.08845 | 7.72903 | 12187 ft | 351 kts | 133° |
| 2026-04-15 11:04 | 50.07226 | 7.75717 | 11568 ft | 347 kts | 134° |
| 2026-04-15 11:05 | 50.05625 | 7.78474 | 10948 ft | 337 kts | 134° |
| 2026-04-15 11:05 | 50.04071 | 7.81129 | 10353 ft | 327 kts | 133° |
| 2026-04-15 11:05 | 50.02571 | 7.83683 | 9892 ft | 313 kts | 134° |
| 2026-04-15 11:05 | 50.01132 | 7.86151 | 9413 ft | 301 kts | 133° |
| 2026-04-15 11:06 | 49.99747 | 7.88519 | 8948 ft | 291 kts | 133° |
| 2026-04-15 11:06 | 49.98416 | 7.90811 | 8489 ft | 280 kts | 134° |
| 2026-04-15 11:06 | 49.97146 | 7.93008 | 8033 ft | 272 kts | 133° |
| 2026-04-15 11:06 | 49.95896 | 7.95154 | 7585 ft | 264 kts | 134° |
| 2026-04-15 11:07 | 49.94681 | 7.97238 | 7135 ft | 256 kts | 133° |
| 2026-04-15 11:07 | 49.93708 | 7.99491 | 6702 ft | 249 kts | 116° |
| 2026-04-15 11:07 | 49.93024 | 8.01952 | 6355 ft | 246 kts | 111° |
| 2026-04-15 11:07 | 49.92850 | 8.04554 | 6089 ft | 244 kts | 82° |
| 2026-04-15 11:08 | 49.93352 | 8.07049 | 5821 ft | 242 kts | 70° |
| 2026-04-15 11:08 | 49.93754 | 8.08654 | 5660 ft | 239 kts | 71° |
| 2026-04-15 11:08 | 49.94350 | 8.11054 | 5420 ft | 237 kts | 71° |
| 2026-04-15 11:08 | 49.94934 | 8.13442 | 5161 ft | 235 kts | 71° |
| 2026-04-15 11:09 | 49.95497 | 8.15752 | 5027 ft | 221 kts | 71° |
| 2026-04-15 11:09 | 49.96019 | 8.17891 | 4915 ft | 204 kts | 71° |
| 2026-04-15 11:09 | 49.96505 | 8.19891 | 4662 ft | 194 kts | 71° |
| 2026-04-15 11:09 | 49.96974 | 8.21823 | 4388 ft | 190 kts | 71° |
| 2026-04-15 11:10 | 49.97438 | 8.23735 | 4099 ft | 188 kts | 71° |
| 2026-04-15 11:10 | 49.97895 | 8.25619 | 3841 ft | 184 kts | 70° |
| 2026-04-15 11:10 | 49.98347 | 8.27485 | 3572 ft | 183 kts | 70° |
| 2026-04-15 11:10 | 49.98793 | 8.29323 | 3309 ft | 181 kts | 70° |
| 2026-04-15 11:11 | 49.99222 | 8.31097 | 3051 ft | 176 kts | 70° |
| 2026-04-15 11:11 | 49.99648 | 8.32861 | 2793 ft | 173 kts | 70° |
| 2026-04-15 11:11 | 50.00068 | 8.34596 | 2546 ft | 171 kts | 70° |
| 2026-04-15 11:11 | 50.00485 | 8.36326 | 2309 ft | 170 kts | 70° |
| 2026-04-15 11:12 | 50.00898 | 8.38037 | 2046 ft | 170 kts | 70° |
| 2026-04-15 11:12 | 50.01299 | 8.39697 | 1801 ft | 157 kts | 69° |
| 2026-04-15 11:12 | 50.01665 | 8.41215 | 1592 ft | 145 kts | 70° |
| 2026-04-15 11:12 | 50.02009 | 8.42647 | 1381 ft | 139 kts | 70° |
| 2026-04-15 11:13 | 50.02341 | 8.44049 | 1192 ft | 137 kts | 70° |
| 2026-04-15 11:13 | 50.02678 | 8.45447 | 970 ft | 138 kts | 70° |
| 2026-04-15 11:13 | 50.03017 | 8.46844 | 755 ft | 138 kts | 71° |
| 2026-04-15 11:13 | 50.03351 | 8.48248 | 551 ft | 140 kts | 72° |
| 2026-04-15 11:14 | 50.03692 | 8.49650 | 373 ft | 138 kts | 72° |
| 2026-04-15 11:14 | 50.04002 | 8.50948 | 325 ft | 113 kts | 70° |
| 2026-04-15 11:14 | 50.04215 | 8.51841 | 336 ft | 63 kts | 69° |
| 2026-04-15 11:14 | 50.04350 | 8.52403 | 346 ft | 45 kts | 69° |
| 2026-04-15 11:15 | 50.04389 | 8.52847 | 350 ft | 39 kts | 99° |
| 2026-04-15 11:15 | 50.04350 | 8.53227 | 361 ft | 32 kts | 93° |
| 2026-04-15 11:15 | 50.04396 | 8.53528 | 375 ft | 27 kts | 83° |
| 2026-04-15 11:15 | 50.04415 | 8.53819 | 375 ft | 28 kts | 84° |
| 2026-04-15 11:16 | 50.04435 | 8.54122 | 375 ft | 29 kts | 84° |
| 2026-04-15 11:16 | 50.04453 | 8.54433 | 371 ft | 30 kts | 91° |
| 2026-04-15 11:16 | 50.04360 | 8.54725 | 360 ft | 33 kts | 141° |
| 2026-04-15 11:16 | 50.04180 | 8.54846 | 358 ft | 20 kts | 160° |
| 2026-04-15 11:17 | 50.04085 | 8.54901 | 354 ft | 9 kts | 160° |
| 2026-04-15 11:17 | 50.04072 | 8.54908 | 356 ft | 0 kts | 160° |
| 2026-04-15 11:18 | 50.04071 | 8.54909 | 356 ft | 1 kts | 160° |
| 2026-04-15 11:18 | 50.04052 | 8.54920 | 354 ft | 7 kts | 160° |
| 2026-04-15 11:18 | 50.04021 | 8.55027 | 354 ft | 18 kts | 73° |
| 2026-04-15 11:19 | 50.04067 | 8.55220 | 355 ft | 20 kts | 70° |
| 2026-04-15 11:19 | 50.04116 | 8.55423 | 359 ft | 21 kts | 69° |
| 2026-04-15 11:19 | 50.04167 | 8.55639 | 353 ft | 21 kts | 70° |
| 2026-04-15 11:19 | 50.04210 | 8.55818 | 354 ft | 17 kts | 70° |
| 2026-04-15 11:20 | 50.04256 | 8.56013 | 363 ft | 21 kts | 69° |
| 2026-04-15 11:20 | 50.04309 | 8.56233 | 361 ft | 22 kts | 70° |
| 2026-04-15 11:20 | 50.04365 | 8.56465 | 361 ft | 24 kts | 69° |
| 2026-04-15 11:20 | 50.04421 | 8.56701 | 360 ft | 23 kts | 69° |
| 2026-04-15 11:21 | 50.04475 | 8.56929 | 362 ft | 23 kts | 70° |
| 2026-04-15 11:21 | 50.04533 | 8.57168 | 362 ft | 24 kts | 70° |
| 2026-04-15 11:21 | 50.04590 | 8.57410 | 362 ft | 24 kts | 70° |
| 2026-04-15 11:21 | 50.04648 | 8.57651 | 364 ft | 24 kts | 70° |
| 2026-04-15 11:22 | 50.04709 | 8.57889 | 360 ft | 24 kts | 56° |
| 2026-04-15 11:22 | 50.04810 | 8.58080 | 359 ft | 23 kts | 71° |
| 2026-04-15 11:22 | 50.04864 | 8.58309 | 361 ft | 22 kts | 70° |
| 2026-04-15 11:22 | 50.04918 | 8.58539 | 366 ft | 23 kts | 69° |
| 2026-04-15 11:23 | 50.04974 | 8.58771 | 363 ft | 23 kts | 69° |
| 2026-04-15 11:23 | 50.05030 | 8.59002 | 361 ft | 23 kts | 70° |
| 2026-04-15 11:23 | 50.05078 | 8.59220 | 362 ft | 18 kts | 82° |
| 2026-04-15 11:23 | 50.05008 | 8.59332 | 365 ft | 15 kts | 160° |
| 2026-04-15 11:24 | 50.04918 | 8.59374 | 367 ft | 13 kts | 179° |
| 2026-04-15 11:24 | 50.04861 | 8.59302 | 368 ft | 8 kts | 277° |
| 2026-04-15 11:24 | 50.04909 | 8.59267 | 367 ft | 7 kts | 340° |
| 2026-04-15 11:24 | 50.04925 | 8.59258 | 367 ft | 2 kts | 340° |
| 2026-04-15 11:25 | 50.04930 | 8.59255 | 365 ft | 0 kts | 340° |